createdAt,value
2022-08-07T00:00:26.242Z,99.90
2022-08-07T00:02:53.791Z,99.90
2022-08-07T00:05:21.308Z,99.90
2022-08-07T00:07:58.242Z,99.90
2022-08-07T00:10:29.686Z,99.90
2022-08-07T00:13:01.146Z,99.90
2022-08-07T00:15:38.606Z,99.90
2022-08-07T00:18:19.837Z,99.90
2022-08-07T00:20:51.885Z,99.90
2022-08-07T00:23:21.184Z,99.90
2022-08-07T00:25:52.522Z,99.90
2022-08-07T00:28:33.461Z,99.90
2022-08-07T00:31:12.516Z,99.90
2022-08-07T00:33:47.788Z,99.90
2022-08-07T00:36:16.725Z,99.90
2022-08-07T00:38:43.894Z,99.90
2022-08-07T00:41:14.841Z,99.90
2022-08-07T00:43:59.858Z,99.90
2022-08-07T00:46:29.589Z,99.90
2022-08-07T00:49:03.289Z,99.90
2022-08-07T00:51:56.978Z,99.90
2022-08-07T00:54:19.896Z,99.90
2022-08-07T00:56:49.891Z,99.90
2022-08-07T00:59:35.438Z,99.90
2022-08-07T01:02:13.982Z,99.90
2022-08-07T01:04:54.317Z,99.90
2022-08-07T01:07:27.552Z,99.90
2022-08-07T01:10:06.144Z,99.90
2022-08-07T01:12:53.972Z,99.90
2022-08-07T01:15:35.951Z,99.90
2022-08-07T01:18:11.446Z,99.90
2022-08-07T01:20:57.425Z,99.90
2022-08-07T01:23:38.403Z,99.90
2022-08-07T01:26:12.027Z,99.90
2022-08-07T01:28:45.951Z,99.90
2022-08-07T01:31:15.385Z,99.90
2022-08-07T01:33:55.588Z,99.90
2022-08-07T01:36:33.494Z,99.90
2022-08-07T01:39:09.882Z,99.90
2022-08-07T01:41:40.769Z,99.90
2022-08-07T01:44:26.543Z,99.90
2022-08-07T01:46:54.686Z,99.90
2022-08-07T01:49:22.253Z,99.90
2022-08-07T01:52:03.489Z,99.90
2022-08-07T01:54:37.398Z,99.90
2022-08-07T01:57:28.199Z,99.90
2022-08-07T02:00:00.691Z,99.90
2022-08-07T02:03:12.059Z,99.90
2022-08-07T02:05:47.669Z,99.90
2022-08-07T02:08:23.939Z,99.90
2022-08-07T02:10:54.983Z,99.90
2022-08-07T02:13:27.618Z,99.90
2022-08-07T02:16:13.111Z,99.90
2022-08-07T02:18:45.492Z,99.90
2022-08-07T02:21:17.317Z,99.90
2022-08-07T02:23:46.244Z,99.90
2022-08-07T02:26:34.548Z,99.90
2022-08-07T02:29:02.815Z,99.90
2022-08-07T02:31:32.721Z,99.90
2022-08-07T02:34:03.734Z,99.90
2022-08-07T02:36:39.504Z,99.90
2022-08-07T02:39:16.804Z,99.90
2022-08-07T02:41:54.594Z,99.90
2022-08-07T02:44:26.881Z,99.90
2022-08-07T02:47:04.428Z,99.90
2022-08-07T02:49:56.145Z,99.90
2022-08-07T02:52:32.119Z,99.90
2022-08-07T02:55:03.690Z,99.90
2022-08-07T02:57:35.031Z,99.90
2022-08-07T03:00:05.157Z,99.90
2022-08-07T03:02:50.973Z,99.90
2022-08-07T03:05:23.114Z,99.90
2022-08-07T03:08:07.371Z,99.90
2022-08-07T03:10:41.042Z,99.90
2022-08-07T03:13:19.390Z,99.90
2022-08-07T03:15:56.100Z,99.90
2022-08-07T03:18:35.017Z,99.90
2022-08-07T03:21:08.466Z,99.90
2022-08-07T03:24:19.560Z,99.90
2022-08-07T03:26:30.101Z,99.90
2022-08-07T03:28:58.757Z,99.90
2022-08-07T03:31:42.615Z,99.90
2022-08-07T03:34:18.585Z,99.90
2022-08-07T03:36:51.814Z,99.90
2022-08-07T03:39:46.276Z,99.90
2022-08-07T03:42:08.478Z,99.90
2022-08-07T03:44:37.727Z,99.90
2022-08-07T03:47:10.904Z,99.90
2022-08-07T03:49:39.431Z,99.90
2022-08-07T03:52:22.331Z,99.90
2022-08-07T03:54:54.119Z,99.90
2022-08-07T03:58:35.502Z,99.90
2022-08-07T04:00:11.713Z,99.90
2022-08-07T04:02:42.618Z,99.90
2022-08-07T04:05:14.719Z,99.90
2022-08-07T04:07:47.727Z,99.90
2022-08-07T04:10:19.349Z,99.90
2022-08-07T04:12:48.058Z,99.90
2022-08-07T04:15:17.011Z,99.90
2022-08-07T04:18:31.075Z,99.90
2022-08-07T04:20:35.343Z,99.90
2022-08-07T04:23:06.618Z,99.90
2022-08-07T04:25:39.022Z,99.90
2022-08-07T04:28:08.126Z,99.90
2022-08-07T04:30:43.607Z,99.90
2022-08-07T04:33:24.462Z,99.90
2022-08-07T04:35:53.260Z,99.90
2022-08-07T04:38:22.076Z,99.90
2022-08-07T04:40:52.043Z,99.90
2022-08-07T04:44:09.619Z,99.90
2022-08-07T04:46:34.375Z,99.90
2022-08-07T04:49:18.053Z,99.90
2022-08-07T04:52:02.296Z,99.90
2022-08-07T04:54:43.021Z,99.90
2022-08-07T04:58:10.080Z,99.90
2022-08-07T05:00:30.439Z,99.90
2022-08-07T05:04:00.387Z,99.90
2022-08-07T05:06:19.957Z,99.90
2022-08-07T05:09:11.207Z,99.90
2022-08-07T05:11:57.289Z,99.90
2022-08-07T05:14:54.507Z,99.90
2022-08-07T05:17:52.900Z,99.90
2022-08-07T05:20:23.835Z,99.90
2022-08-07T05:22:53.370Z,99.90
2022-08-07T05:25:26.268Z,99.90
2022-08-07T05:28:20.172Z,99.90
2022-08-07T05:30:52.210Z,99.90
2022-08-07T05:33:20.877Z,99.90
2022-08-07T05:35:50.902Z,99.90
2022-08-07T05:38:59.732Z,99.90
2022-08-07T05:41:14.100Z,99.90
2022-08-07T05:44:08.381Z,99.90
2022-08-07T05:46:37.725Z,99.90
2022-08-07T05:49:12.436Z,99.90
2022-08-07T05:51:46.359Z,99.90
2022-08-07T05:54:30.521Z,99.90
2022-08-07T05:56:59.378Z,99.90
2022-08-07T05:59:28.002Z,99.90
2022-08-07T06:01:59.398Z,99.90
2022-08-07T06:04:29.972Z,99.90
2022-08-07T06:07:03.978Z,99.90
2022-08-07T06:09:44.836Z,99.90
2022-08-07T06:12:21.014Z,99.90
2022-08-07T06:14:55.230Z,99.90
2022-08-07T06:17:37.590Z,99.90
2022-08-07T06:20:12.438Z,99.90
2022-08-07T06:22:42.245Z,99.90
2022-08-07T06:25:34.650Z,99.90
2022-08-07T06:28:10.248Z,99.90
2022-08-07T06:30:45.882Z,99.90
2022-08-07T06:33:16.342Z,99.90
2022-08-07T06:35:47.871Z,99.90
2022-08-07T06:38:31.500Z,99.90
2022-08-07T06:41:00.916Z,99.90
2022-08-07T06:43:39.389Z,99.90
2022-08-07T06:46:11.640Z,99.90
2022-08-07T06:48:41.968Z,99.90
2022-08-07T06:51:31.299Z,99.90
2022-08-07T06:55:29.921Z,99.90
2022-08-07T06:56:55.085Z,99.90
2022-08-07T07:00:12.759Z,99.90
2022-08-07T07:02:49.266Z,99.90
2022-08-07T07:05:13.038Z,99.90
2022-08-07T07:07:59.796Z,99.90
2022-08-07T07:10:35.464Z,99.90
2022-08-07T07:13:16.343Z,99.90
2022-08-07T07:16:07.832Z,99.90
2022-08-07T07:18:47.743Z,99.90
2022-08-07T07:21:26.980Z,99.90
2022-08-07T07:24:12.495Z,99.90
2022-08-07T07:26:49.661Z,99.90
2022-08-07T07:29:55.815Z,99.90
2022-08-07T07:32:14.465Z,99.90
2022-08-07T07:34:49.319Z,99.90
2022-08-07T07:37:45.115Z,99.90
2022-08-07T07:40:10.220Z,99.90
2022-08-07T07:42:43.471Z,99.90
2022-08-07T07:45:24.601Z,99.90
2022-08-07T07:48:12.936Z,99.90
2022-08-07T07:51:02.076Z,99.90
2022-08-07T07:53:30.590Z,99.90
2022-08-07T07:56:03.590Z,99.90
2022-08-07T07:58:37.113Z,99.90
2022-08-07T08:02:03.684Z,99.90
2022-08-07T08:04:06.258Z,99.90
2022-08-07T08:06:39.704Z,99.90
2022-08-07T08:09:09.731Z,99.90
2022-08-07T08:11:59.267Z,99.90
2022-08-07T08:14:28.082Z,99.90
2022-08-07T08:17:55.534Z,99.90
2022-08-07T08:20:17.774Z,99.60
2022-08-07T08:23:02.080Z,99.90
2022-08-07T08:25:52.155Z,99.90
2022-08-07T08:28:38.059Z,99.90
2022-08-07T08:31:14.740Z,99.90
2022-08-07T08:33:49.903Z,99.90
2022-08-07T08:36:25.626Z,99.90
2022-08-07T08:39:01.614Z,99.50
2022-08-07T08:41:57.102Z,99.20
2022-08-07T08:44:44.263Z,99.90
2022-08-07T08:47:25.961Z,99.90
2022-08-07T08:50:06.042Z,99.90
2022-08-07T08:52:40.896Z,99.90
2022-08-07T08:55:53.241Z,99.90
2022-08-07T08:58:57.271Z,99.90
2022-08-07T09:01:44.129Z,99.90
2022-08-07T09:04:28.596Z,99.90
2022-08-07T09:07:22.960Z,99.90
2022-08-07T09:10:19.376Z,99.90
2022-08-07T09:13:03.777Z,99.90
2022-08-07T09:16:23.872Z,98.90
2022-08-07T09:19:00.572Z,99.40
2022-08-07T09:22:22.389Z,97.70
2022-08-07T09:24:55.997Z,98.70
2022-08-07T09:28:00.413Z,95.10
2022-08-07T09:31:07.223Z,94.10
2022-08-07T09:33:57.974Z,93.10
2022-08-07T09:36:35.707Z,92.60
2022-08-07T09:39:53.185Z,90.90
2022-08-07T09:42:50.432Z,88.90
2022-08-07T09:47:24.707Z,88.70
2022-08-07T09:50:02.529Z,90.90
2022-08-07T09:52:10.100Z,91.50
2022-08-07T09:54:56.432Z,91.00
2022-08-07T09:57:50.792Z,87.10
2022-08-07T10:00:29.950Z,87.30
2022-08-07T10:04:05.083Z,89.50
2022-08-07T10:06:49.146Z,90.40
2022-08-07T10:09:59.329Z,90.50
2022-08-07T10:12:52.615Z,91.60
2022-08-07T10:15:44.824Z,91.90
2022-08-07T10:18:26.375Z,91.60
2022-08-07T10:21:19.926Z,91.30
2022-08-07T10:24:21.580Z,90.20
2022-08-07T10:26:58.441Z,90.30
2022-08-07T10:29:51.773Z,90.80
2022-08-07T10:32:53.353Z,88.50
2022-08-07T10:35:55.366Z,89.70
2022-08-07T10:38:49.530Z,88.40
2022-08-07T10:41:52.247Z,88.50
2022-08-07T10:44:39.083Z,90.90
2022-08-07T10:47:54.975Z,91.00
2022-08-07T10:50:50.227Z,90.60
2022-08-07T10:53:44.834Z,91.40
2022-08-07T10:56:20.957Z,90.20
2022-08-07T10:59:30.234Z,91.40
2022-08-07T11:02:12.436Z,90.20
2022-08-07T11:05:44.824Z,90.60
2022-08-07T11:08:34.543Z,91.20
2022-08-07T11:11:14.666Z,91.40
2022-08-07T11:14:44.399Z,91.80
2022-08-07T11:16:54.747Z,92.10
2022-08-07T11:19:29.494Z,92.30
2022-08-07T11:22:26.688Z,92.60
2022-08-07T11:25:06.484Z,93.10
2022-08-07T11:28:02.476Z,93.40
2022-08-07T11:30:52.461Z,93.40
2022-08-07T11:33:54.267Z,94.20
2022-08-07T11:36:31.011Z,93.30
2022-08-07T11:39:14.654Z,92.50
2022-08-07T11:42:03.357Z,92.70
2022-08-07T11:44:52.428Z,92.60
2022-08-07T11:47:56.692Z,92.50
2022-08-07T11:50:57.899Z,93.90
2022-08-07T11:54:03.151Z,91.90
2022-08-07T11:57:15.762Z,92.80
2022-08-07T12:00:10.445Z,92.30
2022-08-07T12:02:59.790Z,93.40
2022-08-07T12:05:49.364Z,94.10
2022-08-07T12:08:31.813Z,93.40
2022-08-07T12:11:21.190Z,93.30
2022-08-07T12:14:22.392Z,94.40
2022-08-07T12:16:58.337Z,94.10
2022-08-07T12:19:35.758Z,94.80
2022-08-07T12:22:37.957Z,94.20
2022-08-07T12:26:02.778Z,93.70
2022-08-07T12:28:58.640Z,94.20
2022-08-07T12:32:01.924Z,95.00
2022-08-07T12:34:38.892Z,92.70
2022-08-07T12:37:16.802Z,94.20
2022-08-07T12:39:52.463Z,92.30
2022-08-07T12:42:27.681Z,93.00
2022-08-07T12:45:05.658Z,92.30
2022-08-07T12:47:49.112Z,92.20
2022-08-07T12:50:40.267Z,89.70
2022-08-07T12:54:02.763Z,91.00
2022-08-07T12:56:33.659Z,91.10
2022-08-07T12:59:03.813Z,92.00
2022-08-07T13:02:03.104Z,92.10
2022-08-07T13:06:01.835Z,92.00
2022-08-07T13:08:19.270Z,93.10
2022-08-07T13:11:16.137Z,93.60
2022-08-07T13:14:09.233Z,93.20
2022-08-07T13:16:50.709Z,93.10
2022-08-07T13:19:58.636Z,92.10
2022-08-07T13:22:33.156Z,92.90
2022-08-07T13:25:06.889Z,93.80
2022-08-07T13:28:12.433Z,93.60
2022-08-07T13:30:49.017Z,93.60
2022-08-07T13:34:31.877Z,93.40
2022-08-07T13:36:59.448Z,94.30
2022-08-07T13:40:35.946Z,92.90
2022-08-07T13:43:01.619Z,92.70
2022-08-07T13:46:21.233Z,92.20
2022-08-07T13:48:33.735Z,91.70
2022-08-07T13:51:27.704Z,92.20
2022-08-07T13:54:04.940Z,91.70
2022-08-07T13:56:51.533Z,91.20
2022-08-07T13:59:27.089Z,91.30
2022-08-07T14:02:10.379Z,89.50
2022-08-07T14:04:50.222Z,89.30
2022-08-07T14:07:24.679Z,90.40
2022-08-07T14:10:02.226Z,90.70
2022-08-07T14:12:57.586Z,91.10
2022-08-07T14:15:24.578Z,91.20
2022-08-07T14:18:23.857Z,91.20
2022-08-07T14:20:48.648Z,90.50
2022-08-07T14:23:31.385Z,91.70
2022-08-07T14:26:28.415Z,92.10
2022-08-07T14:29:08.606Z,92.50
2022-08-07T14:31:55.973Z,92.40
2022-08-07T14:34:29.929Z,92.40
2022-08-07T14:37:03.656Z,89.60
2022-08-07T14:40:17.392Z,90.90
2022-08-07T14:42:31.486Z,91.50
2022-08-07T14:45:22.334Z,91.70
2022-08-07T14:50:51.925Z,90.80
2022-08-07T14:54:03.783Z,91.10
2022-08-07T14:56:13.221Z,91.50
2022-08-07T14:58:44.104Z,91.40
2022-08-07T15:01:21.624Z,92.40
2022-08-07T15:06:40.458Z,93.20
2022-08-07T15:09:47.110Z,94.00
2022-08-07T15:15:08.264Z,93.70
2022-08-07T15:17:55.309Z,92.90
2022-08-07T15:23:21.115Z,93.50
2022-08-07T15:26:11.089Z,93.60
2022-08-07T15:28:56.720Z,93.50
2022-08-07T15:32:00.978Z,94.30
2022-08-07T15:34:26.129Z,94.40
2022-08-07T15:39:52.108Z,94.90
2022-08-07T15:42:53.928Z,94.90
2022-08-07T15:45:56.180Z,94.30
2022-08-07T15:48:27.262Z,95.10
2022-08-07T15:53:56.091Z,95.70
2022-08-07T15:56:45.030Z,96.00
2022-08-07T15:59:17.217Z,95.90
2022-08-07T16:02:01.997Z,96.40
2022-08-07T16:04:32.102Z,96.90
2022-08-07T16:07:01.078Z,98.10
2022-08-07T16:09:42.345Z,98.60
2022-08-07T16:13:01.005Z,98.20
2022-08-07T16:15:57.770Z,98.50
2022-08-07T16:18:49.446Z,98.40
2022-08-07T16:22:08.727Z,97.90
2022-08-07T16:25:23.250Z,98.00
2022-08-07T16:27:57.159Z,98.40
2022-08-07T16:30:32.589Z,99.10
2022-08-07T16:34:01.833Z,99.20
2022-08-07T16:36:20.789Z,99.60
2022-08-07T16:39:33.865Z,99.90
2022-08-07T16:42:38.004Z,98.60
2022-08-07T16:46:21.048Z,98.40
2022-08-07T16:48:27.749Z,98.50
2022-08-07T16:51:54.631Z,98.30
2022-08-07T16:54:33.162Z,98.40
2022-08-07T16:57:15.232Z,98.20
2022-08-07T16:59:58.118Z,99.20
2022-08-07T17:03:17.178Z,99.90
2022-08-07T17:06:29.627Z,99.90
2022-08-07T17:09:09.646Z,99.90
2022-08-07T17:12:01.799Z,99.90
2022-08-07T17:14:52.349Z,99.90
2022-08-07T17:17:48.599Z,99.90
2022-08-07T17:20:37.385Z,99.90
2022-08-07T17:23:22.794Z,99.90
2022-08-07T17:26:22.780Z,99.90
2022-08-07T17:28:58.186Z,99.90
2022-08-07T17:31:44.110Z,99.90
2022-08-07T17:35:08.938Z,99.90
2022-08-07T17:38:09.816Z,99.90
2022-08-07T17:40:56.682Z,99.90
2022-08-07T17:44:02.241Z,99.90
2022-08-07T17:46:43.248Z,99.90
2022-08-07T17:49:58.555Z,99.90
2022-08-07T17:52:47.369Z,99.90
2022-08-07T17:56:01.065Z,99.90
2022-08-07T17:58:09.090Z,99.90
2022-08-07T18:00:48.803Z,99.90
2022-08-07T18:03:28.576Z,99.90
2022-08-07T18:06:38.706Z,99.90
2022-08-07T18:09:08.793Z,99.90
2022-08-07T18:12:17.869Z,99.90
2022-08-07T18:14:45.034Z,99.90
2022-08-07T18:18:46.259Z,99.90
2022-08-07T18:21:09.697Z,99.90
2022-08-07T18:23:50.789Z,99.90
2022-08-07T18:26:40.572Z,99.90
2022-08-07T18:30:05.380Z,99.90
2022-08-07T18:32:22.321Z,99.90
2022-08-07T18:35:27.089Z,99.90
2022-08-07T18:38:55.489Z,99.90
2022-08-07T18:41:44.660Z,99.90
2022-08-07T18:47:44.909Z,99.90
2022-08-07T18:50:40.781Z,99.90
2022-08-07T18:53:39.214Z,99.90
2022-08-07T18:56:30.756Z,99.90
2022-08-07T18:59:08.289Z,99.90
2022-08-07T19:02:33.926Z,99.90
2022-08-07T19:05:15.352Z,99.90
2022-08-07T19:08:06.355Z,99.90
2022-08-07T19:10:49.530Z,99.90
2022-08-07T19:13:55.136Z,99.90
2022-08-07T19:17:05.041Z,99.90
2022-08-07T19:19:51.214Z,99.90
2022-08-07T19:22:52.577Z,99.90
2022-08-07T19:26:22.929Z,99.90
2022-08-07T19:28:58.489Z,99.90
2022-08-07T19:31:42.774Z,99.90
2022-08-07T19:34:34.353Z,99.90
2022-08-07T19:37:17.282Z,99.90
2022-08-07T19:39:57.724Z,99.90
2022-08-07T19:42:31.554Z,99.90
2022-08-07T19:45:08.602Z,99.90
2022-08-07T19:47:42.971Z,99.90
2022-08-07T19:50:44.537Z,99.90
2022-08-07T19:52:59.111Z,99.90
2022-08-07T19:55:56.752Z,99.90
2022-08-07T19:58:28.409Z,99.90
2022-08-07T20:00:57.856Z,99.90
2022-08-07T20:03:35.236Z,99.90
2022-08-07T20:06:15.412Z,99.90
2022-08-07T20:08:58.406Z,99.90
2022-08-07T20:12:01.323Z,99.90
2022-08-07T20:14:31.697Z,99.90
2022-08-07T20:17:03.452Z,99.90
2022-08-07T20:19:49.342Z,99.90
2022-08-07T20:22:28.999Z,99.90
2022-08-07T20:25:12.772Z,99.90
2022-08-07T20:27:58.277Z,99.90
2022-08-07T20:30:34.431Z,99.90
2022-08-07T20:33:05.041Z,99.90
2022-08-07T20:35:51.974Z,99.90
2022-08-07T20:38:29.945Z,99.90
2022-08-07T20:41:03.817Z,99.90
2022-08-07T20:43:36.385Z,99.90
2022-08-07T20:46:28.566Z,99.90
2022-08-07T20:49:58.181Z,99.90
2022-08-07T20:51:50.230Z,99.90
2022-08-07T20:54:29.700Z,99.90
2022-08-07T20:57:04.465Z,99.90
2022-08-07T21:00:07.426Z,99.90
2022-08-07T21:02:55.225Z,99.90
2022-08-07T21:05:51.259Z,99.90
2022-08-07T21:08:36.701Z,99.90
2022-08-07T21:11:17.453Z,99.90
2022-08-07T21:14:16.595Z,99.90
2022-08-07T21:17:06.772Z,99.90
2022-08-07T21:19:51.910Z,99.90
2022-08-07T21:22:40.027Z,99.90
2022-08-07T21:25:24.526Z,99.90
2022-08-07T21:28:47.537Z,99.90
2022-08-07T21:31:24.830Z,99.90
2022-08-07T21:34:31.737Z,99.90
2022-08-07T21:37:25.608Z,99.90
2022-08-07T21:39:59.712Z,99.90
2022-08-07T21:42:48.964Z,99.90
2022-08-07T21:46:03.440Z,99.90
2022-08-07T21:48:27.845Z,99.90
2022-08-07T21:51:19.499Z,99.90
2022-08-07T21:53:53.987Z,99.90
2022-08-07T21:56:36.498Z,99.90
2022-08-07T21:59:24.010Z,99.90
2022-08-07T22:02:13.165Z,99.90
2022-08-07T22:04:53.783Z,99.90
2022-08-07T22:07:35.635Z,99.90
2022-08-07T22:10:24.710Z,99.90
2022-08-07T22:12:55.499Z,99.90
2022-08-07T22:16:40.195Z,99.90
2022-08-07T22:18:44.583Z,99.90
2022-08-07T22:21:21.019Z,99.90
2022-08-07T22:24:01.481Z,99.90
2022-08-07T22:26:44.770Z,99.90
2022-08-07T22:29:47.545Z,99.90
2022-08-07T22:32:47.180Z,99.90
2022-08-07T22:35:23.365Z,99.90
2022-08-07T22:38:02.829Z,99.90
2022-08-07T22:41:07.649Z,99.90
2022-08-07T22:43:50.321Z,99.90
2022-08-07T22:47:02.783Z,99.90
2022-08-07T22:49:16.493Z,99.90
2022-08-07T22:51:43.463Z,99.90
2022-08-07T22:54:41.089Z,99.90
2022-08-07T22:57:40.999Z,99.90
2022-08-07T23:00:16.716Z,99.90
2022-08-07T23:03:17.496Z,99.90
2022-08-07T23:06:24.050Z,99.90
2022-08-07T23:10:06.338Z,99.90
2022-08-07T23:12:33.985Z,99.90
2022-08-07T23:16:05.640Z,99.90
2022-08-07T23:18:32.151Z,99.90
2022-08-07T23:21:06.432Z,99.90
2022-08-07T23:24:05.176Z,99.90
2022-08-07T23:26:54.848Z,99.90
2022-08-07T23:30:37.643Z,99.90
2022-08-07T23:34:36.720Z,99.90
2022-08-07T23:36:22.882Z,99.90
2022-08-07T23:39:12.840Z,99.90
2022-08-07T23:42:07.816Z,99.90
2022-08-07T23:44:51.477Z,99.90
2022-08-07T23:47:26.264Z,99.90
2022-08-07T23:50:18.287Z,99.90
2022-08-07T23:53:00.971Z,99.90
2022-08-07T23:56:11.686Z,99.90
